sensor_id;sensor_type;location;lat;lon;timestamp;P1;durP1;ratioP1;P2;durP2;ratioP2
9950;SDS011;24074;49.254;6.702;2024-01-16T00:01:34;4.27;;;3.70;;
9950;SDS011;24074;49.254;6.702;2024-01-16T00:03:59;6.57;;;3.87;;
9950;SDS011;24074;49.254;6.702;2024-01-16T00:06:25;6.67;;;3.80;;
9950;SDS011;24074;49.254;6.702;2024-01-16T00:08:50;6.83;;;4.10;;
9950;SDS011;24074;49.254;6.702;2024-01-16T00:11:16;6.23;;;3.93;;
9950;SDS011;24074;49.254;6.702;2024-01-16T00:13:41;6.33;;;3.83;;
9950;SDS011;24074;49.254;6.702;2024-01-16T00:16:07;6.33;;;3.57;;
9950;SDS011;24074;49.254;6.702;2024-01-16T00:18:33;6.13;;;3.50;;
9950;SDS011;24074;49.254;6.702;2024-01-16T00:21:02;5.40;;;3.67;;
9950;SDS011;24074;49.254;6.702;2024-01-16T00:23:28;7.03;;;3.60;;
9950;SDS011;24074;49.254;6.702;2024-01-16T00:25:56;5.83;;;3.50;;
9950;SDS011;24074;49.254;6.702;2024-01-16T00:28:22;6.90;;;3.70;;
9950;SDS011;24074;49.254;6.702;2024-01-16T00:30:47;4.77;;;3.80;;
9950;SDS011;24074;49.254;6.702;2024-01-16T00:33:13;6.07;;;4.70;;
9950;SDS011;24074;49.254;6.702;2024-01-16T00:35:38;6.30;;;3.60;;
9950;SDS011;24074;49.254;6.702;2024-01-16T00:38:04;5.70;;;3.63;;
9950;SDS011;24074;49.254;6.702;2024-01-16T00:40:30;6.00;;;3.50;;
9950;SDS011;24074;49.254;6.702;2024-01-16T00:42:56;4.67;;;3.87;;
9950;SDS011;24074;49.254;6.702;2024-01-16T00:45:21;7.27;;;3.80;;
9950;SDS011;24074;49.254;6.702;2024-01-16T00:47:47;5.03;;;3.57;;
9950;SDS011;24074;49.254;6.702;2024-01-16T00:50:13;4.03;;;3.20;;
9950;SDS011;24074;49.254;6.702;2024-01-16T00:52:38;5.83;;;3.67;;
9950;SDS011;24074;49.254;6.702;2024-01-16T00:55:04;5.90;;;3.40;;
9950;SDS011;24074;49.254;6.702;2024-01-16T00:57:30;5.73;;;3.37;;
9950;SDS011;24074;49.254;6.702;2024-01-16T00:59:56;5.43;;;3.37;;
9950;SDS011;24074;49.254;6.702;2024-01-16T01:02:21;4.83;;;3.60;;
9950;SDS011;24074;49.254;6.702;2024-01-16T01:04:47;5.90;;;3.70;;
9950;SDS011;24074;49.254;6.702;2024-01-16T01:07:15;4.00;;;3.27;;
9950;SDS011;24074;49.254;6.702;2024-01-16T01:09:41;5.00;;;3.37;;
9950;SDS011;24074;49.254;6.702;2024-01-16T01:12:07;6.27;;;3.80;;
9950;SDS011;24074;49.254;6.702;2024-01-16T01:14:32;5.97;;;4.00;;
9950;SDS011;24074;49.254;6.702;2024-01-16T01:16:58;6.27;;;3.70;;
9950;SDS011;24074;49.254;6.702;2024-01-16T01:19:24;7.87;;;4.00;;
9950;SDS011;24074;49.254;6.702;2024-01-16T01:21:50;5.07;;;3.50;;
9950;SDS011;24074;49.254;6.702;2024-01-16T01:24:15;6.40;;;3.63;;
9950;SDS011;24074;49.254;6.702;2024-01-16T01:26:43;5.77;;;3.40;;
9950;SDS011;24074;49.254;6.702;2024-01-16T01:29:09;6.27;;;3.70;;
9950;SDS011;24074;49.254;6.702;2024-01-16T01:31:35;4.73;;;3.67;;
9950;SDS011;24074;49.254;6.702;2024-01-16T01:34:01;5.00;;;3.80;;
9950;SDS011;24074;49.254;6.702;2024-01-16T01:36:27;6.50;;;3.93;;
9950;SDS011;24074;49.254;6.702;2024-01-16T01:38:52;7.00;;;3.80;;
9950;SDS011;24074;49.254;6.702;2024-01-16T01:41:18;6.10;;;3.60;;
9950;SDS011;24074;49.254;6.702;2024-01-16T01:43:44;5.83;;;3.50;;
9950;SDS011;24074;49.254;6.702;2024-01-16T01:46:10;5.67;;;3.37;;
9950;SDS011;24074;49.254;6.702;2024-01-16T01:48:45;6.93;;;4.10;;
9950;SDS011;24074;49.254;6.702;2024-01-16T01:51:13;5.67;;;3.73;;
9950;SDS011;24074;49.254;6.702;2024-01-16T01:53:39;7.17;;;3.83;;
9950;SDS011;24074;49.254;6.702;2024-01-16T01:56:08;10.57;;;4.50;;
9950;SDS011;24074;49.254;6.702;2024-01-16T01:58:36;8.87;;;3.83;;
9950;SDS011;24074;49.254;6.702;2024-01-16T02:01:03;7.73;;;4.07;;
9950;SDS011;24074;49.254;6.702;2024-01-16T02:03:32;5.17;;;3.73;;
9950;SDS011;24074;49.254;6.702;2024-01-16T02:06:12;3.90;;;3.50;;
9950;SDS011;24074;49.254;6.702;2024-01-16T02:08:41;7.10;;;4.03;;
9950;SDS011;24074;49.254;6.702;2024-01-16T02:11:09;5.57;;;4.13;;
9950;SDS011;24074;49.254;6.702;2024-01-16T02:13:35;5.17;;;3.70;;
9950;SDS011;24074;49.254;6.702;2024-01-16T02:16:01;7.43;;;3.70;;
9950;SDS011;24074;49.254;6.702;2024-01-16T02:18:28;5.70;;;4.00;;
9950;SDS011;24074;49.254;6.702;2024-01-16T02:20:55;5.43;;;4.03;;
9950;SDS011;24074;49.254;6.702;2024-01-16T02:23:28;6.10;;;3.90;;
9950;SDS011;24074;49.254;6.702;2024-01-16T02:25:55;5.97;;;3.50;;
9950;SDS011;24074;49.254;6.702;2024-01-16T02:28:21;6.37;;;3.90;;
9950;SDS011;24074;49.254;6.702;2024-01-16T02:30:47;5.50;;;3.53;;
9950;SDS011;24074;49.254;6.702;2024-01-16T02:33:12;4.47;;;3.70;;
9950;SDS011;24074;49.254;6.702;2024-01-16T02:35:38;5.67;;;3.93;;
9950;SDS011;24074;49.254;6.702;2024-01-16T02:38:04;6.10;;;3.57;;
9950;SDS011;24074;49.254;6.702;2024-01-16T02:40:29;6.20;;;3.80;;
9950;SDS011;24074;49.254;6.702;2024-01-16T02:42:55;6.47;;;3.93;;
9950;SDS011;24074;49.254;6.702;2024-01-16T02:45:21;6.53;;;4.20;;
9950;SDS011;24074;49.254;6.702;2024-01-16T02:47:47;8.00;;;4.20;;
9950;SDS011;24074;49.254;6.702;2024-01-16T02:50:13;5.60;;;4.33;;
9950;SDS011;24074;49.254;6.702;2024-01-16T02:52:38;5.63;;;3.77;;
9950;SDS011;24074;49.254;6.702;2024-01-16T02:55:04;6.33;;;3.80;;
9950;SDS011;24074;49.254;6.702;2024-01-16T02:57:30;6.67;;;4.00;;
9950;SDS011;24074;49.254;6.702;2024-01-16T02:59:56;7.87;;;4.30;;
9950;SDS011;24074;49.254;6.702;2024-01-16T03:02:21;6.43;;;4.00;;
9950;SDS011;24074;49.254;6.702;2024-01-16T03:04:48;5.90;;;3.80;;
9950;SDS011;24074;49.254;6.702;2024-01-16T03:07:14;7.53;;;3.93;;
9950;SDS011;24074;49.254;6.702;2024-01-16T03:09:40;9.40;;;4.60;;
9950;SDS011;24074;49.254;6.702;2024-01-16T03:12:06;6.80;;;4.20;;
9950;SDS011;24074;49.254;6.702;2024-01-16T03:14:31;8.07;;;4.40;;
9950;SDS011;24074;49.254;6.702;2024-01-16T03:17:00;7.83;;;3.87;;
9950;SDS011;24074;49.254;6.702;2024-01-16T03:19:26;6.20;;;4.20;;
9950;SDS011;24074;49.254;6.702;2024-01-16T03:21:52;6.77;;;3.83;;
9950;SDS011;24074;49.254;6.702;2024-01-16T03:24:18;4.77;;;3.80;;
9950;SDS011;24074;49.254;6.702;2024-01-16T03:26:45;7.10;;;3.73;;
9950;SDS011;24074;49.254;6.702;2024-01-16T03:29:10;8.33;;;3.90;;
9950;SDS011;24074;49.254;6.702;2024-01-16T03:31:36;6.97;;;4.20;;
9950;SDS011;24074;49.254;6.702;2024-01-16T03:34:01;6.47;;;3.77;;
9950;SDS011;24074;49.254;6.702;2024-01-16T03:36:27;5.40;;;4.00;;
9950;SDS011;24074;49.254;6.702;2024-01-16T03:38:53;5.57;;;3.77;;
9950;SDS011;24074;49.254;6.702;2024-01-16T03:41:18;6.27;;;3.67;;
9950;SDS011;24074;49.254;6.702;2024-01-16T03:43:47;5.67;;;4.00;;
9950;SDS011;24074;49.254;6.702;2024-01-16T03:46:12;5.17;;;3.77;;
9950;SDS011;24074;49.254;6.702;2024-01-16T03:48:38;5.47;;;3.77;;
9950;SDS011;24074;49.254;6.702;2024-01-16T03:51:04;5.90;;;3.37;;
9950;SDS011;24074;49.254;6.702;2024-01-16T03:53:31;5.20;;;3.07;;
9950;SDS011;24074;49.254;6.702;2024-01-16T03:55:57;6.50;;;3.93;;
9950;SDS011;24074;49.254;6.702;2024-01-16T03:58:23;6.00;;;3.73;;
9950;SDS011;24074;49.254;6.702;2024-01-16T04:00:49;5.47;;;3.37;;
9950;SDS011;24074;49.254;6.702;2024-01-16T04:03:16;5.50;;;3.57;;
9950;SDS011;24074;49.254;6.702;2024-01-16T04:05:42;4.93;;;3.30;;
9950;SDS011;24074;49.254;6.702;2024-01-16T04:08:07;5.43;;;3.20;;
9950;SDS011;24074;49.254;6.702;2024-01-16T04:10:33;4.83;;;3.37;;
9950;SDS011;24074;49.254;6.702;2024-01-16T04:13:02;6.50;;;3.70;;
9950;SDS011;24074;49.254;6.702;2024-01-16T04:15:27;5.13;;;3.20;;
9950;SDS011;24074;49.254;6.702;2024-01-16T04:17:53;5.50;;;3.43;;
9950;SDS011;24074;49.254;6.702;2024-01-16T04:20:19;5.87;;;3.80;;
9950;SDS011;24074;49.254;6.702;2024-01-16T04:22:45;5.37;;;3.40;;
9950;SDS011;24074;49.254;6.702;2024-01-16T04:25:10;5.30;;;3.73;;
9950;SDS011;24074;49.254;6.702;2024-01-16T04:27:36;5.20;;;3.23;;
9950;SDS011;24074;49.254;6.702;2024-01-16T04:30:02;5.43;;;3.90;;
9950;SDS011;24074;49.254;6.702;2024-01-16T04:32:28;5.43;;;3.50;;
9950;SDS011;24074;49.254;6.702;2024-01-16T04:34:53;7.63;;;3.77;;
9950;SDS011;24074;49.254;6.702;2024-01-16T04:37:19;5.33;;;3.30;;
9950;SDS011;24074;49.254;6.702;2024-01-16T04:39:44;4.70;;;3.40;;
9950;SDS011;24074;49.254;6.702;2024-01-16T04:42:10;5.07;;;3.53;;
9950;SDS011;24074;49.254;6.702;2024-01-16T04:44:36;7.17;;;3.73;;
9950;SDS011;24074;49.254;6.702;2024-01-16T04:47:02;6.03;;;3.67;;
9950;SDS011;24074;49.254;6.702;2024-01-16T04:49:27;5.53;;;3.23;;
9950;SDS011;24074;49.254;6.702;2024-01-16T04:51:53;5.00;;;3.47;;
9950;SDS011;24074;49.254;6.702;2024-01-16T04:54:18;5.60;;;3.43;;
9950;SDS011;24074;49.254;6.702;2024-01-16T04:56:44;5.30;;;3.73;;
9950;SDS011;24074;49.254;6.702;2024-01-16T04:59:10;7.63;;;3.60;;
9950;SDS011;24074;49.254;6.702;2024-01-16T05:01:35;5.53;;;3.50;;
9950;SDS011;24074;49.254;6.702;2024-01-16T05:04:01;7.87;;;4.23;;
9950;SDS011;24074;49.254;6.702;2024-01-16T05:06:28;5.37;;;3.97;;
9950;SDS011;24074;49.254;6.702;2024-01-16T05:08:54;4.53;;;3.50;;
9950;SDS011;24074;49.254;6.702;2024-01-16T05:11:20;7.43;;;3.83;;
9950;SDS011;24074;49.254;6.702;2024-01-16T05:13:46;4.40;;;3.63;;
9950;SDS011;24074;49.254;6.702;2024-01-16T05:16:12;5.57;;;4.00;;
9950;SDS011;24074;49.254;6.702;2024-01-16T05:18:41;7.03;;;4.20;;
9950;SDS011;24074;49.254;6.702;2024-01-16T05:21:08;4.90;;;3.87;;
9950;SDS011;24074;49.254;6.702;2024-01-16T05:23:33;8.53;;;3.90;;
9950;SDS011;24074;49.254;6.702;2024-01-16T05:25:59;7.93;;;4.67;;
9950;SDS011;24074;49.254;6.702;2024-01-16T05:28:24;6.50;;;4.30;;
9950;SDS011;24074;49.254;6.702;2024-01-16T05:30:50;8.00;;;4.30;;
9950;SDS011;24074;49.254;6.702;2024-01-16T05:33:15;6.27;;;4.30;;
9950;SDS011;24074;49.254;6.702;2024-01-16T05:35:41;6.83;;;4.57;;
9950;SDS011;24074;49.254;6.702;2024-01-16T05:38:09;6.07;;;4.10;;
9950;SDS011;24074;49.254;6.702;2024-01-16T05:40:37;7.80;;;4.43;;
9950;SDS011;24074;49.254;6.702;2024-01-16T05:43:03;9.03;;;4.87;;
9950;SDS011;24074;49.254;6.702;2024-01-16T05:45:28;6.80;;;4.97;;
9950;SDS011;24074;49.254;6.702;2024-01-16T05:47:54;9.73;;;6.07;;
9950;SDS011;24074;49.254;6.702;2024-01-16T05:50:20;10.17;;;7.00;;
9950;SDS011;24074;49.254;6.702;2024-01-16T05:52:46;10.70;;;5.50;;
9950;SDS011;24074;49.254;6.702;2024-01-16T05:55:11;8.87;;;5.93;;
9950;SDS011;24074;49.254;6.702;2024-01-16T05:57:37;8.47;;;5.80;;
9950;SDS011;24074;49.254;6.702;2024-01-16T06:00:06;9.77;;;5.20;;
9950;SDS011;24074;49.254;6.702;2024-01-16T06:02:32;8.30;;;5.20;;
9950;SDS011;24074;49.254;6.702;2024-01-16T06:04:57;8.30;;;5.73;;
9950;SDS011;24074;49.254;6.702;2024-01-16T06:07:23;8.73;;;5.37;;
9950;SDS011;24074;49.254;6.702;2024-01-16T06:09:48;7.80;;;5.70;;
9950;SDS011;24074;49.254;6.702;2024-01-16T06:12:14;7.97;;;5.70;;
9950;SDS011;24074;49.254;6.702;2024-01-16T06:14:40;8.80;;;5.53;;
9950;SDS011;24074;49.254;6.702;2024-01-16T06:17:05;8.73;;;5.47;;
9950;SDS011;24074;49.254;6.702;2024-01-16T06:19:31;8.30;;;5.67;;
9950;SDS011;24074;49.254;6.702;2024-01-16T06:21:58;9.93;;;5.23;;
9950;SDS011;24074;49.254;6.702;2024-01-16T06:24:24;8.93;;;5.63;;
9950;SDS011;24074;49.254;6.702;2024-01-16T06:26:49;6.20;;;4.90;;
9950;SDS011;24074;49.254;6.702;2024-01-16T06:29:15;8.80;;;5.70;;
9950;SDS011;24074;49.254;6.702;2024-01-16T06:31:40;7.33;;;5.50;;
9950;SDS011;24074;49.254;6.702;2024-01-16T06:34:06;8.60;;;5.30;;
9950;SDS011;24074;49.254;6.702;2024-01-16T06:36:31;6.93;;;5.47;;
9950;SDS011;24074;49.254;6.702;2024-01-16T06:38:57;6.27;;;5.20;;
9950;SDS011;24074;49.254;6.702;2024-01-16T06:41:23;8.03;;;5.30;;
9950;SDS011;24074;49.254;6.702;2024-01-16T06:43:48;7.83;;;5.70;;
9950;SDS011;24074;49.254;6.702;2024-01-16T06:46:14;8.97;;;5.50;;
9950;SDS011;24074;49.254;6.702;2024-01-16T06:48:39;10.17;;;5.43;;
9950;SDS011;24074;49.254;6.702;2024-01-16T06:51:05;8.83;;;5.80;;
9950;SDS011;24074;49.254;6.702;2024-01-16T06:53:32;9.53;;;5.30;;
9950;SDS011;24074;49.254;6.702;2024-01-16T06:55:58;6.37;;;5.37;;
9950;SDS011;24074;49.254;6.702;2024-01-16T06:58:24;7.37;;;5.77;;
9950;SDS011;24074;49.254;6.702;2024-01-16T07:00:49;10.50;;;6.40;;
9950;SDS011;24074;49.254;6.702;2024-01-16T07:03:15;9.23;;;6.33;;
9950;SDS011;24074;49.254;6.702;2024-01-16T07:05:42;10.77;;;6.23;;
9950;SDS011;24074;49.254;6.702;2024-01-16T07:08:08;10.43;;;6.63;;
9950;SDS011;24074;49.254;6.702;2024-01-16T07:10:34;12.67;;;8.20;;
9950;SDS011;24074;49.254;6.702;2024-01-16T07:13:00;11.67;;;7.90;;
9950;SDS011;24074;49.254;6.702;2024-01-16T07:15:26;11.23;;;7.63;;
9950;SDS011;24074;49.254;6.702;2024-01-16T07:17:52;10.73;;;7.90;;
9950;SDS011;24074;49.254;6.702;2024-01-16T07:20:18;11.07;;;7.40;;
9950;SDS011;24074;49.254;6.702;2024-01-16T07:22:44;9.50;;;7.33;;
9950;SDS011;24074;49.254;6.702;2024-01-16T07:25:12;11.23;;;7.10;;
9950;SDS011;24074;49.254;6.702;2024-01-16T07:27:38;9.77;;;6.57;;
9950;SDS011;24074;49.254;6.702;2024-01-16T07:30:04;8.87;;;6.57;;
9950;SDS011;24074;49.254;6.702;2024-01-16T07:32:31;9.90;;;7.17;;
9950;SDS011;24074;49.254;6.702;2024-01-16T07:34:57;9.67;;;7.23;;
9950;SDS011;24074;49.254;6.702;2024-01-16T07:37:22;12.03;;;8.13;;
9950;SDS011;24074;49.254;6.702;2024-01-16T07:39:48;11.30;;;7.53;;
9950;SDS011;24074;49.254;6.702;2024-01-16T07:42:14;13.33;;;7.50;;
9950;SDS011;24074;49.254;6.702;2024-01-16T07:44:39;10.83;;;7.67;;
9950;SDS011;24074;49.254;6.702;2024-01-16T07:47:05;10.63;;;8.33;;
9950;SDS011;24074;49.254;6.702;2024-01-16T07:49:30;11.23;;;7.83;;
9950;SDS011;24074;49.254;6.702;2024-01-16T07:51:56;10.90;;;7.70;;
9950;SDS011;24074;49.254;6.702;2024-01-16T07:54:22;11.47;;;8.03;;
9950;SDS011;24074;49.254;6.702;2024-01-16T07:56:47;10.63;;;8.27;;
9950;SDS011;24074;49.254;6.702;2024-01-16T07:59:13;11.07;;;7.27;;
9950;SDS011;24074;49.254;6.702;2024-01-16T08:01:39;8.83;;;7.20;;
9950;SDS011;24074;49.254;6.702;2024-01-16T08:04:04;10.00;;;7.37;;
9950;SDS011;24074;49.254;6.702;2024-01-16T08:06:30;16.47;;;12.13;;
9950;SDS011;24074;49.254;6.702;2024-01-16T08:08:56;21.90;;;15.13;;
9950;SDS011;24074;49.254;6.702;2024-01-16T08:11:22;25.63;;;17.30;;
9950;SDS011;24074;49.254;6.702;2024-01-16T08:13:48;27.83;;;19.17;;
9950;SDS011;24074;49.254;6.702;2024-01-16T08:16:15;16.87;;;12.50;;
9950;SDS011;24074;49.254;6.702;2024-01-16T08:18:40;14.07;;;9.70;;
9950;SDS011;24074;49.254;6.702;2024-01-16T08:21:06;13.10;;;9.57;;
9950;SDS011;24074;49.254;6.702;2024-01-16T08:23:32;13.90;;;9.70;;
9950;SDS011;24074;49.254;6.702;2024-01-16T08:25:58;13.43;;;10.17;;
9950;SDS011;24074;49.254;6.702;2024-01-16T08:28:24;12.93;;;9.67;;
9950;SDS011;24074;49.254;6.702;2024-01-16T08:30:51;13.87;;;9.43;;
9950;SDS011;24074;49.254;6.702;2024-01-16T08:33:16;26.23;;;21.00;;
9950;SDS011;24074;49.254;6.702;2024-01-16T08:35:42;20.20;;;13.80;;
9950;SDS011;24074;49.254;6.702;2024-01-16T08:38:10;33.27;;;18.07;;
9950;SDS011;24074;49.254;6.702;2024-01-16T08:40:35;40.30;;;24.80;;
9950;SDS011;24074;49.254;6.702;2024-01-16T08:43:01;27.33;;;18.87;;
9950;SDS011;24074;49.254;6.702;2024-01-16T08:45:28;28.00;;;17.57;;
9950;SDS011;24074;49.254;6.702;2024-01-16T08:47:54;19.83;;;14.40;;
9950;SDS011;24074;49.254;6.702;2024-01-16T08:50:19;16.93;;;12.50;;
9950;SDS011;24074;49.254;6.702;2024-01-16T08:52:45;15.10;;;11.33;;
9950;SDS011;24074;49.254;6.702;2024-01-16T08:55:11;15.07;;;11.10;;
9950;SDS011;24074;49.254;6.702;2024-01-16T08:57:36;14.80;;;10.57;;
9950;SDS011;24074;49.254;6.702;2024-01-16T09:00:05;12.63;;;9.77;;
9950;SDS011;24074;49.254;6.702;2024-01-16T09:02:33;13.03;;;9.63;;
9950;SDS011;24074;49.254;6.702;2024-01-16T09:05:00;14.77;;;10.90;;
9950;SDS011;24074;49.254;6.702;2024-01-16T09:07:26;26.03;;;17.17;;
9950;SDS011;24074;49.254;6.702;2024-01-16T09:09:52;21.60;;;13.50;;
9950;SDS011;24074;49.254;6.702;2024-01-16T09:12:18;24.70;;;15.93;;
9950;SDS011;24074;49.254;6.702;2024-01-16T09:14:43;25.30;;;15.40;;
9950;SDS011;24074;49.254;6.702;2024-01-16T09:17:09;19.27;;;12.20;;
9950;SDS011;24074;49.254;6.702;2024-01-16T09:19:34;21.43;;;12.37;;
9950;SDS011;24074;49.254;6.702;2024-01-16T09:22:00;16.57;;;10.43;;
9950;SDS011;24074;49.254;6.702;2024-01-16T09:24:26;14.60;;;9.83;;
9950;SDS011;24074;49.254;6.702;2024-01-16T09:26:52;13.20;;;8.83;;
9950;SDS011;24074;49.254;6.702;2024-01-16T09:29:17;15.20;;;9.53;;
9950;SDS011;24074;49.254;6.702;2024-01-16T09:31:43;13.40;;;8.83;;
9950;SDS011;24074;49.254;6.702;2024-01-16T09:34:08;12.30;;;9.00;;
9950;SDS011;24074;49.254;6.702;2024-01-16T09:36:34;16.30;;;10.20;;
9950;SDS011;24074;49.254;6.702;2024-01-16T09:39:04;15.80;;;10.47;;
9950;SDS011;24074;49.254;6.702;2024-01-16T09:41:33;15.40;;;10.57;;
9950;SDS011;24074;49.254;6.702;2024-01-16T09:43:59;17.93;;;10.70;;
9950;SDS011;24074;49.254;6.702;2024-01-16T09:46:25;15.23;;;9.63;;
9950;SDS011;24074;49.254;6.702;2024-01-16T09:48:52;13.80;;;9.00;;
9950;SDS011;24074;49.254;6.702;2024-01-16T09:51:20;13.97;;;9.30;;
9950;SDS011;24074;49.254;6.702;2024-01-16T09:53:46;13.50;;;8.80;;
9950;SDS011;24074;49.254;6.702;2024-01-16T09:56:14;13.03;;;8.67;;
9950;SDS011;24074;49.254;6.702;2024-01-16T09:58:42;11.87;;;8.73;;
9950;SDS011;24074;49.254;6.702;2024-01-16T10:01:10;13.17;;;8.60;;
9950;SDS011;24074;49.254;6.702;2024-01-16T10:03:37;13.37;;;9.13;;
9950;SDS011;24074;49.254;6.702;2024-01-16T10:06:06;13.67;;;9.07;;
9950;SDS011;24074;49.254;6.702;2024-01-16T10:08:32;15.17;;;9.77;;
9950;SDS011;24074;49.254;6.702;2024-01-16T10:10:59;12.93;;;8.90;;
9950;SDS011;24074;49.254;6.702;2024-01-16T10:13:25;12.03;;;8.97;;
9950;SDS011;24074;49.254;6.702;2024-01-16T10:15:51;11.23;;;8.90;;
9950;SDS011;24074;49.254;6.702;2024-01-16T10:18:22;12.60;;;9.60;;
9950;SDS011;24074;49.254;6.702;2024-01-16T10:20:49;10.93;;;8.13;;
9950;SDS011;24074;49.254;6.702;2024-01-16T10:23:31;11.70;;;8.90;;
9950;SDS011;24074;49.254;6.702;2024-01-16T10:28:40;11.13;;;8.37;;
9950;SDS011;24074;49.254;6.702;2024-01-16T10:31:08;17.20;;;8.67;;
9950;SDS011;24074;49.254;6.702;2024-01-16T10:33:35;11.03;;;8.03;;
9950;SDS011;24074;49.254;6.702;2024-01-16T10:38:38;11.47;;;7.70;;
9950;SDS011;24074;49.254;6.702;2024-01-16T10:41:14;8.90;;;7.73;;
9950;SDS011;24074;49.254;6.702;2024-01-16T10:43:41;9.67;;;7.07;;
9950;SDS011;24074;49.254;6.702;2024-01-16T10:48:38;9.77;;;6.97;;
9950;SDS011;24074;49.254;6.702;2024-01-16T10:51:08;7.57;;;6.40;;
9950;SDS011;24074;49.254;6.702;2024-01-16T10:53:37;9.43;;;7.40;;
9950;SDS011;24074;49.254;6.702;2024-01-16T10:56:06;10.07;;;6.67;;
9950;SDS011;24074;49.254;6.702;2024-01-16T10:58:35;8.20;;;6.50;;
9950;SDS011;24074;49.254;6.702;2024-01-16T11:01:03;9.70;;;7.00;;
9950;SDS011;24074;49.254;6.702;2024-01-16T11:03:38;11.40;;;6.67;;
9950;SDS011;24074;49.254;6.702;2024-01-16T11:06:08;8.40;;;6.63;;
9950;SDS011;24074;49.254;6.702;2024-01-16T11:08:36;10.50;;;7.03;;
9950;SDS011;24074;49.254;6.702;2024-01-16T11:11:02;8.80;;;6.20;;
9950;SDS011;24074;49.254;6.702;2024-01-16T11:13:36;9.93;;;6.90;;
9950;SDS011;24074;49.254;6.702;2024-01-16T11:16:02;8.60;;;6.50;;
9950;SDS011;24074;49.254;6.702;2024-01-16T11:18:29;10.27;;;7.10;;
9950;SDS011;24074;49.254;6.702;2024-01-16T11:20:57;9.53;;;6.77;;
9950;SDS011;24074;49.254;6.702;2024-01-16T11:23:23;9.47;;;5.80;;
9950;SDS011;24074;49.254;6.702;2024-01-16T11:25:49;7.70;;;6.03;;
9950;SDS011;24074;49.254;6.702;2024-01-16T11:28:15;8.73;;;6.30;;
9950;SDS011;24074;49.254;6.702;2024-01-16T11:30:41;7.50;;;5.90;;
9950;SDS011;24074;49.254;6.702;2024-01-16T11:35:56;8.63;;;6.20;;
9950;SDS011;24074;49.254;6.702;2024-01-16T11:38:21;8.47;;;5.57;;
9950;SDS011;24074;49.254;6.702;2024-01-16T11:40:51;8.30;;;5.83;;
9950;SDS011;24074;49.254;6.702;2024-01-16T11:45:59;8.30;;;6.17;;
9950;SDS011;24074;49.254;6.702;2024-01-16T11:48:26;8.17;;;6.03;;
9950;SDS011;24074;49.254;6.702;2024-01-16T11:50:52;7.67;;;6.10;;
9950;SDS011;24074;49.254;6.702;2024-01-16T11:53:39;9.20;;;6.77;;
9950;SDS011;24074;49.254;6.702;2024-01-16T12:01:52;9.83;;;6.70;;
9950;SDS011;24074;49.254;6.702;2024-01-16T12:04:22;8.67;;;5.83;;
9950;SDS011;24074;49.254;6.702;2024-01-16T12:06:58;9.30;;;6.00;;
9950;SDS011;24074;49.254;6.702;2024-01-16T12:09:25;8.47;;;5.33;;
9950;SDS011;24074;49.254;6.702;2024-01-16T12:11:59;7.73;;;5.30;;
9950;SDS011;24074;49.254;6.702;2024-01-16T12:14:27;8.63;;;5.97;;
9950;SDS011;24074;49.254;6.702;2024-01-16T12:17:12;9.80;;;6.47;;
9950;SDS011;24074;49.254;6.702;2024-01-16T12:19:38;6.73;;;5.63;;
9950;SDS011;24074;49.254;6.702;2024-01-16T12:22:08;8.47;;;5.37;;
9950;SDS011;24074;49.254;6.702;2024-01-16T12:24:37;10.63;;;5.40;;
9950;SDS011;24074;49.254;6.702;2024-01-16T12:27:06;6.77;;;4.23;;
9950;SDS011;24074;49.254;6.702;2024-01-16T12:29:33;5.97;;;3.10;;
9950;SDS011;24074;49.254;6.702;2024-01-16T12:32:05;5.03;;;3.30;;
9950;SDS011;24074;49.254;6.702;2024-01-16T12:34:35;4.70;;;3.10;;
9950;SDS011;24074;49.254;6.702;2024-01-16T12:37:07;5.07;;;2.80;;
9950;SDS011;24074;49.254;6.702;2024-01-16T12:39:36;6.60;;;2.90;;
9950;SDS011;24074;49.254;6.702;2024-01-16T12:42:02;5.33;;;2.77;;
9950;SDS011;24074;49.254;6.702;2024-01-16T12:44:28;3.80;;;2.50;;
9950;SDS011;24074;49.254;6.702;2024-01-16T12:46:54;4.23;;;2.80;;
9950;SDS011;24074;49.254;6.702;2024-01-16T12:49:26;3.57;;;2.80;;
9950;SDS011;24074;49.254;6.702;2024-01-16T12:52:14;4.53;;;2.53;;
9950;SDS011;24074;49.254;6.702;2024-01-16T12:54:59;6.67;;;3.27;;
9950;SDS011;24074;49.254;6.702;2024-01-16T12:57:25;4.90;;;3.30;;
9950;SDS011;24074;49.254;6.702;2024-01-16T12:59:51;3.73;;;3.20;;
9950;SDS011;24074;49.254;6.702;2024-01-16T13:02:24;4.03;;;2.60;;
9950;SDS011;24074;49.254;6.702;2024-01-16T13:04:59;4.80;;;2.40;;
9950;SDS011;24074;49.254;6.702;2024-01-16T13:07:28;5.37;;;2.70;;
9950;SDS011;24074;49.254;6.702;2024-01-16T13:10:05;3.50;;;2.60;;
9950;SDS011;24074;49.254;6.702;2024-01-16T13:12:44;5.23;;;2.40;;
9950;SDS011;24074;49.254;6.702;2024-01-16T13:15:10;7.30;;;3.33;;
9950;SDS011;24074;49.254;6.702;2024-01-16T13:17:41;7.63;;;3.83;;
9950;SDS011;24074;49.254;6.702;2024-01-16T13:20:07;5.67;;;3.40;;
9950;SDS011;24074;49.254;6.702;2024-01-16T13:22:35;5.50;;;3.17;;
9950;SDS011;24074;49.254;6.702;2024-01-16T13:25:01;6.07;;;3.23;;
9950;SDS011;24074;49.254;6.702;2024-01-16T13:27:27;4.97;;;3.23;;
9950;SDS011;24074;49.254;6.702;2024-01-16T13:29:54;5.70;;;3.20;;
9950;SDS011;24074;49.254;6.702;2024-01-16T13:32:21;5.33;;;3.70;;
9950;SDS011;24074;49.254;6.702;2024-01-16T13:34:46;5.37;;;3.40;;
9950;SDS011;24074;49.254;6.702;2024-01-16T13:37:16;7.57;;;3.87;;
9950;SDS011;24074;49.254;6.702;2024-01-16T13:39:45;6.77;;;4.03;;
9950;SDS011;24074;49.254;6.702;2024-01-16T13:42:11;5.27;;;3.33;;
9950;SDS011;24074;49.254;6.702;2024-01-16T13:44:37;5.97;;;3.63;;
9950;SDS011;24074;49.254;6.702;2024-01-16T13:47:03;5.73;;;3.67;;
9950;SDS011;24074;49.254;6.702;2024-01-16T13:49:29;3.97;;;3.00;;
9950;SDS011;24074;49.254;6.702;2024-01-16T13:51:55;4.90;;;3.53;;
9950;SDS011;24074;49.254;6.702;2024-01-16T13:54:21;5.53;;;3.20;;
9950;SDS011;24074;49.254;6.702;2024-01-16T13:56:46;4.03;;;3.33;;
9950;SDS011;24074;49.254;6.702;2024-01-16T13:59:12;5.27;;;3.80;;
9950;SDS011;24074;49.254;6.702;2024-01-16T14:01:37;5.43;;;3.30;;
9950;SDS011;24074;49.254;6.702;2024-01-16T14:04:03;5.80;;;3.33;;
9950;SDS011;24074;49.254;6.702;2024-01-16T14:06:30;6.07;;;5.10;;
9950;SDS011;24074;49.254;6.702;2024-01-16T14:08:55;7.80;;;3.90;;
9950;SDS011;24074;49.254;6.702;2024-01-16T14:11:21;5.73;;;3.53;;
9950;SDS011;24074;49.254;6.702;2024-01-16T14:13:46;6.13;;;3.40;;
9950;SDS011;24074;49.254;6.702;2024-01-16T14:16:13;7.77;;;5.47;;
9950;SDS011;24074;49.254;6.702;2024-01-16T14:18:38;5.40;;;3.03;;
9950;SDS011;24074;49.254;6.702;2024-01-16T14:21:07;5.30;;;3.00;;
9950;SDS011;24074;49.254;6.702;2024-01-16T14:23:32;5.57;;;4.10;;
9950;SDS011;24074;49.254;6.702;2024-01-16T14:25:58;5.73;;;3.53;;
9950;SDS011;24074;49.254;6.702;2024-01-16T14:28:24;5.40;;;3.87;;
9950;SDS011;24074;49.254;6.702;2024-01-16T14:30:51;5.70;;;4.13;;
9950;SDS011;24074;49.254;6.702;2024-01-16T14:33:16;5.53;;;3.90;;
9950;SDS011;24074;49.254;6.702;2024-01-16T14:35:42;7.50;;;4.90;;
9950;SDS011;24074;49.254;6.702;2024-01-16T14:38:08;7.27;;;4.77;;
9950;SDS011;24074;49.254;6.702;2024-01-16T14:40:34;5.70;;;4.40;;
9950;SDS011;24074;49.254;6.702;2024-01-16T14:43:00;8.37;;;4.10;;
9950;SDS011;24074;49.254;6.702;2024-01-16T14:45:29;5.80;;;4.00;;
9950;SDS011;24074;49.254;6.702;2024-01-16T14:47:56;8.93;;;4.60;;
9950;SDS011;24074;49.254;6.702;2024-01-16T14:50:22;6.47;;;4.50;;
9950;SDS011;24074;49.254;6.702;2024-01-16T14:52:49;5.83;;;4.10;;
9950;SDS011;24074;49.254;6.702;2024-01-16T14:55:15;6.57;;;4.90;;
9950;SDS011;24074;49.254;6.702;2024-01-16T14:57:41;8.03;;;5.20;;
9950;SDS011;24074;49.254;6.702;2024-01-16T15:00:08;6.57;;;4.43;;
9950;SDS011;24074;49.254;6.702;2024-01-16T15:02:39;7.07;;;4.50;;
9950;SDS011;24074;49.254;6.702;2024-01-16T15:05:04;6.77;;;5.07;;
9950;SDS011;24074;49.254;6.702;2024-01-16T15:07:31;7.07;;;5.10;;
9950;SDS011;24074;49.254;6.702;2024-01-16T15:09:56;7.37;;;4.93;;
9950;SDS011;24074;49.254;6.702;2024-01-16T15:12:22;7.27;;;4.00;;
9950;SDS011;24074;49.254;6.702;2024-01-16T15:14:47;5.07;;;4.40;;